sensor_id;sensor_type;location;lat;lon;timestamp;P1;durP1;ratioP1;P2;durP2;ratioP2
11829;SDS011;5972;42.134;24.718;2022-10-28T00:01:12;9.95;;;5.22;;
11829;SDS011;5972;42.134;24.718;2022-10-28T00:03:40;12.75;;;5.93;;
11829;SDS011;5972;42.134;24.718;2022-10-28T00:06:09;9.25;;;5.63;;
11829;SDS011;5972;42.134;24.718;2022-10-28T00:08:37;11.68;;;5.65;;
11829;SDS011;5972;42.134;24.718;2022-10-28T00:11:05;9.75;;;5.57;;
11829;SDS011;5972;42.134;24.718;2022-10-28T00:13:34;7.95;;;5.50;;
11829;SDS011;5972;42.134;24.718;2022-10-28T00:16:02;10.95;;;5.70;;
11829;SDS011;5972;42.134;24.718;2022-10-28T00:18:31;8.43;;;5.03;;
11829;SDS011;5972;42.134;24.718;2022-10-28T00:20:59;10.68;;;5.18;;
11829;SDS011;5972;42.134;24.718;2022-10-28T00:23:27;9.77;;;5.32;;
11829;SDS011;5972;42.134;24.718;2022-10-28T00:25:54;10.35;;;5.72;;
11829;SDS011;5972;42.134;24.718;2022-10-28T00:28:21;11.10;;;6.57;;
11829;SDS011;5972;42.134;24.718;2022-10-28T00:30:49;14.27;;;6.93;;
11829;SDS011;5972;42.134;24.718;2022-10-28T00:33:16;11.55;;;7.35;;
11829;SDS011;5972;42.134;24.718;2022-10-28T00:35:43;12.18;;;7.28;;
11829;SDS011;5972;42.134;24.718;2022-10-28T00:38:09;15.52;;;8.25;;
11829;SDS011;5972;42.134;24.718;2022-10-28T00:40:36;16.75;;;8.80;;
11829;SDS011;5972;42.134;24.718;2022-10-28T00:43:03;16.42;;;8.80;;
11829;SDS011;5972;42.134;24.718;2022-10-28T00:45:30;19.13;;;8.70;;
11829;SDS011;5972;42.134;24.718;2022-10-28T00:47:59;16.98;;;9.25;;
11829;SDS011;5972;42.134;24.718;2022-10-28T00:50:30;17.75;;;8.48;;
11829;SDS011;5972;42.134;24.718;2022-10-28T00:53:05;13.48;;;9.13;;
11829;SDS011;5972;42.134;24.718;2022-10-28T00:55:35;17.95;;;8.98;;
11829;SDS011;5972;42.134;24.718;2022-10-28T00:58:03;20.92;;;9.13;;
11829;SDS011;5972;42.134;24.718;2022-10-28T01:00:31;19.55;;;8.65;;
11829;SDS011;5972;42.134;24.718;2022-10-28T01:03:00;24.80;;;9.30;;
11829;SDS011;5972;42.134;24.718;2022-10-28T01:05:28;21.38;;;9.18;;
11829;SDS011;5972;42.134;24.718;2022-10-28T01:07:58;22.55;;;9.05;;
11829;SDS011;5972;42.134;24.718;2022-10-28T01:10:30;19.65;;;8.52;;
11829;SDS011;5972;42.134;24.718;2022-10-28T01:13:11;16.02;;;9.20;;
11829;SDS011;5972;42.134;24.718;2022-10-28T01:16:00;26.33;;;9.25;;
11829;SDS011;5972;42.134;24.718;2022-10-28T01:18:35;19.10;;;9.10;;
11829;SDS011;5972;42.134;24.718;2022-10-28T01:21:17;18.65;;;10.02;;
11829;SDS011;5972;42.134;24.718;2022-10-28T01:24:11;20.73;;;10.90;;
11829;SDS011;5972;42.134;24.718;2022-10-28T01:29:59;24.17;;;11.65;;
11829;SDS011;5972;42.134;24.718;2022-10-28T01:32:34;14.90;;;10.73;;
11829;SDS011;5972;42.134;24.718;2022-10-28T01:35:13;22.23;;;10.32;;
11829;SDS011;5972;42.134;24.718;2022-10-28T01:37:48;15.93;;;9.80;;
11829;SDS011;5972;42.134;24.718;2022-10-28T01:40:24;21.63;;;10.75;;
11829;SDS011;5972;42.134;24.718;2022-10-28T01:43:01;16.15;;;9.77;;
11829;SDS011;5972;42.134;24.718;2022-10-28T01:45:37;20.98;;;11.30;;
11829;SDS011;5972;42.134;24.718;2022-10-28T01:48:12;21.50;;;11.40;;
11829;SDS011;5972;42.134;24.718;2022-10-28T01:53:19;19.35;;;10.63;;
11829;SDS011;5972;42.134;24.718;2022-10-28T01:55:50;23.20;;;11.20;;
11829;SDS011;5972;42.134;24.718;2022-10-28T01:58:22;19.75;;;11.18;;
11829;SDS011;5972;42.134;24.718;2022-10-28T02:00:52;22.02;;;11.98;;
11829;SDS011;5972;42.134;24.718;2022-10-28T02:03:22;27.45;;;14.63;;
11829;SDS011;5972;42.134;24.718;2022-10-28T02:05:50;22.10;;;11.75;;
11829;SDS011;5972;42.134;24.718;2022-10-28T02:08:21;28.40;;;13.40;;
11829;SDS011;5972;42.134;24.718;2022-10-28T02:14:06;23.85;;;12.88;;
11829;SDS011;5972;42.134;24.718;2022-10-28T02:16:47;29.65;;;13.30;;
11829;SDS011;5972;42.134;24.718;2022-10-28T02:19:21;19.58;;;13.45;;
11829;SDS011;5972;42.134;24.718;2022-10-28T02:21:58;21.15;;;13.07;;
11829;SDS011;5972;42.134;24.718;2022-10-28T02:24:37;21.55;;;12.13;;
11829;SDS011;5972;42.134;24.718;2022-10-28T02:27:13;22.40;;;12.38;;
11829;SDS011;5972;42.134;24.718;2022-10-28T02:29:44;22.15;;;11.60;;
11829;SDS011;5972;42.134;24.718;2022-10-28T02:32:17;25.67;;;12.20;;
11829;SDS011;5972;42.134;24.718;2022-10-28T02:34:50;18.83;;;11.07;;
11829;SDS011;5972;42.134;24.718;2022-10-28T02:37:21;20.27;;;11.50;;
11829;SDS011;5972;42.134;24.718;2022-10-28T02:39:52;19.80;;;11.18;;
11829;SDS011;5972;42.134;24.718;2022-10-28T02:42:24;20.52;;;11.15;;
11829;SDS011;5972;42.134;24.718;2022-10-28T02:44:55;24.48;;;10.70;;
11829;SDS011;5972;42.134;24.718;2022-10-28T02:47:27;24.42;;;11.38;;
11829;SDS011;5972;42.134;24.718;2022-10-28T02:50:02;21.90;;;11.45;;
11829;SDS011;5972;42.134;24.718;2022-10-28T02:52:32;24.85;;;10.95;;
11829;SDS011;5972;42.134;24.718;2022-10-28T02:55:01;19.52;;;10.85;;
11829;SDS011;5972;42.134;24.718;2022-10-28T02:57:31;19.83;;;10.95;;
11829;SDS011;5972;42.134;24.718;2022-10-28T03:00:00;19.27;;;11.13;;
11829;SDS011;5972;42.134;24.718;2022-10-28T03:02:30;24.83;;;10.77;;
11829;SDS011;5972;42.134;24.718;2022-10-28T03:04:57;15.15;;;10.45;;
11829;SDS011;5972;42.134;24.718;2022-10-28T03:07:25;22.52;;;11.30;;
11829;SDS011;5972;42.134;24.718;2022-10-28T03:09:52;19.35;;;10.73;;
11829;SDS011;5972;42.134;24.718;2022-10-28T03:12:19;18.20;;;10.30;;
11829;SDS011;5972;42.134;24.718;2022-10-28T03:14:45;15.98;;;9.75;;
11829;SDS011;5972;42.134;24.718;2022-10-28T03:17:12;15.35;;;9.95;;
11829;SDS011;5972;42.134;24.718;2022-10-28T03:19:39;14.52;;;10.25;;
11829;SDS011;5972;42.134;24.718;2022-10-28T03:22:06;18.00;;;9.73;;
11829;SDS011;5972;42.134;24.718;2022-10-28T03:24:34;12.85;;;9.48;;
11829;SDS011;5972;42.134;24.718;2022-10-28T03:27:01;22.27;;;10.00;;
11829;SDS011;5972;42.134;24.718;2022-10-28T03:29:28;17.65;;;10.35;;
11829;SDS011;5972;42.134;24.718;2022-10-28T03:31:54;14.32;;;10.15;;
11829;SDS011;5972;42.134;24.718;2022-10-28T03:34:21;18.80;;;10.35;;
11829;SDS011;5972;42.134;24.718;2022-10-28T03:36:48;14.68;;;9.98;;
11829;SDS011;5972;42.134;24.718;2022-10-28T03:39:15;16.08;;;10.32;;
11829;SDS011;5972;42.134;24.718;2022-10-28T03:41:43;17.98;;;11.05;;
11829;SDS011;5972;42.134;24.718;2022-10-28T03:44:10;19.05;;;9.63;;
11829;SDS011;5972;42.134;24.718;2022-10-28T03:46:37;13.27;;;9.88;;
11829;SDS011;5972;42.134;24.718;2022-10-28T03:49:04;18.33;;;11.10;;
11829;SDS011;5972;42.134;24.718;2022-10-28T03:51:33;17.90;;;10.00;;
11829;SDS011;5972;42.134;24.718;2022-10-28T03:54:00;14.95;;;9.35;;
11829;SDS011;5972;42.134;24.718;2022-10-28T03:56:27;20.77;;;10.18;;
11829;SDS011;5972;42.134;24.718;2022-10-28T03:58:55;15.43;;;9.90;;
11829;SDS011;5972;42.134;24.718;2022-10-28T04:01:22;30.52;;;10.98;;
11829;SDS011;5972;42.134;24.718;2022-10-28T04:03:49;19.85;;;10.88;;
11829;SDS011;5972;42.134;24.718;2022-10-28T04:06:16;16.58;;;10.00;;
11829;SDS011;5972;42.134;24.718;2022-10-28T04:08:42;18.47;;;10.60;;
11829;SDS011;5972;42.134;24.718;2022-10-28T04:11:09;20.52;;;11.80;;
11829;SDS011;5972;42.134;24.718;2022-10-28T04:13:36;23.92;;;10.98;;
11829;SDS011;5972;42.134;24.718;2022-10-28T04:16:05;17.83;;;10.80;;
11829;SDS011;5972;42.134;24.718;2022-10-28T04:18:32;20.17;;;10.02;;
11829;SDS011;5972;42.134;24.718;2022-10-28T04:20:59;16.70;;;10.13;;
11829;SDS011;5972;42.134;24.718;2022-10-28T04:23:26;19.65;;;10.25;;
11829;SDS011;5972;42.134;24.718;2022-10-28T04:25:53;17.60;;;9.60;;
11829;SDS011;5972;42.134;24.718;2022-10-28T04:28:21;25.05;;;11.27;;
11829;SDS011;5972;42.134;24.718;2022-10-28T04:30:48;29.50;;;12.05;;
11829;SDS011;5972;42.134;24.718;2022-10-28T04:33:16;32.55;;;11.70;;
11829;SDS011;5972;42.134;24.718;2022-10-28T04:35:43;25.67;;;11.07;;
11829;SDS011;5972;42.134;24.718;2022-10-28T04:38:11;20.95;;;10.27;;
11829;SDS011;5972;42.134;24.718;2022-10-28T04:40:38;23.95;;;9.82;;
11829;SDS011;5972;42.134;24.718;2022-10-28T04:43:05;17.20;;;10.70;;
11829;SDS011;5972;42.134;24.718;2022-10-28T04:45:32;21.38;;;9.77;;
11829;SDS011;5972;42.134;24.718;2022-10-28T04:47:59;17.52;;;9.80;;
11829;SDS011;5972;42.134;24.718;2022-10-28T04:50:27;25.27;;;9.13;;
11829;SDS011;5972;42.134;24.718;2022-10-28T04:52:54;19.27;;;9.70;;
11829;SDS011;5972;42.134;24.718;2022-10-28T04:55:21;19.48;;;9.52;;
11829;SDS011;5972;42.134;24.718;2022-10-28T04:57:54;19.52;;;9.15;;
11829;SDS011;5972;42.134;24.718;2022-10-28T05:00:22;16.45;;;8.52;;
11829;SDS011;5972;42.134;24.718;2022-10-28T05:02:49;16.08;;;9.13;;
11829;SDS011;5972;42.134;24.718;2022-10-28T05:05:16;17.20;;;9.40;;
11829;SDS011;5972;42.134;24.718;2022-10-28T05:07:45;11.70;;;8.02;;
11829;SDS011;5972;42.134;24.718;2022-10-28T05:10:11;15.60;;;8.45;;
11829;SDS011;5972;42.134;24.718;2022-10-28T05:12:42;13.02;;;7.95;;
11829;SDS011;5972;42.134;24.718;2022-10-28T05:15:09;17.30;;;8.35;;
11829;SDS011;5972;42.134;24.718;2022-10-28T05:17:37;18.83;;;7.75;;
11829;SDS011;5972;42.134;24.718;2022-10-28T05:20:05;17.92;;;8.60;;
11829;SDS011;5972;42.134;24.718;2022-10-28T05:22:33;18.00;;;9.02;;
11829;SDS011;5972;42.134;24.718;2022-10-28T05:25:01;16.35;;;8.48;;
11829;SDS011;5972;42.134;24.718;2022-10-28T05:27:29;13.23;;;8.00;;
11829;SDS011;5972;42.134;24.718;2022-10-28T05:29:55;10.35;;;7.25;;
11829;SDS011;5972;42.134;24.718;2022-10-28T05:32:22;11.38;;;7.55;;
11829;SDS011;5972;42.134;24.718;2022-10-28T05:34:49;19.52;;;7.90;;
11829;SDS011;5972;42.134;24.718;2022-10-28T05:37:16;12.57;;;7.60;;
11829;SDS011;5972;42.134;24.718;2022-10-28T05:39:42;12.70;;;7.38;;
11829;SDS011;5972;42.134;24.718;2022-10-28T05:42:11;10.30;;;7.20;;
11829;SDS011;5972;42.134;24.718;2022-10-28T05:44:38;20.95;;;7.60;;
11829;SDS011;5972;42.134;24.718;2022-10-28T05:47:04;14.60;;;7.55;;
11829;SDS011;5972;42.134;24.718;2022-10-28T05:49:31;15.77;;;8.30;;
11829;SDS011;5972;42.134;24.718;2022-10-28T05:51:58;14.70;;;6.75;;
11829;SDS011;5972;42.134;24.718;2022-10-28T05:54:25;17.88;;;7.22;;
11829;SDS011;5972;42.134;24.718;2022-10-28T05:56:52;15.35;;;7.50;;
11829;SDS011;5972;42.134;24.718;2022-10-28T05:59:20;11.60;;;6.75;;
11829;SDS011;5972;42.134;24.718;2022-10-28T06:01:47;9.68;;;6.50;;
11829;SDS011;5972;42.134;24.718;2022-10-28T06:04:14;17.33;;;8.55;;
11829;SDS011;5972;42.134;24.718;2022-10-28T06:06:41;13.35;;;8.98;;
11829;SDS011;5972;42.134;24.718;2022-10-28T06:09:07;16.60;;;8.23;;
11829;SDS011;5972;42.134;24.718;2022-10-28T06:11:34;9.23;;;7.25;;
11829;SDS011;5972;42.134;24.718;2022-10-28T06:14:01;12.70;;;7.90;;
11829;SDS011;5972;42.134;24.718;2022-10-28T06:16:29;13.50;;;8.27;;
11829;SDS011;5972;42.134;24.718;2022-10-28T06:18:56;16.02;;;7.38;;
11829;SDS011;5972;42.134;24.718;2022-10-28T06:21:23;21.13;;;9.75;;
11829;SDS011;5972;42.134;24.718;2022-10-28T06:23:50;13.20;;;8.13;;
11829;SDS011;5972;42.134;24.718;2022-10-28T06:26:17;16.17;;;8.35;;
11829;SDS011;5972;42.134;24.718;2022-10-28T06:28:45;19.33;;;7.47;;
11829;SDS011;5972;42.134;24.718;2022-10-28T06:31:12;15.27;;;6.20;;
11829;SDS011;5972;42.134;24.718;2022-10-28T06:33:41;15.38;;;7.38;;
11829;SDS011;5972;42.134;24.718;2022-10-28T06:36:08;11.80;;;6.22;;
11829;SDS011;5972;42.134;24.718;2022-10-28T06:38:35;17.45;;;5.80;;
11829;SDS011;5972;42.134;24.718;2022-10-28T06:41:02;19.63;;;6.13;;
11829;SDS011;5972;42.134;24.718;2022-10-28T06:43:29;11.43;;;5.65;;
11829;SDS011;5972;42.134;24.718;2022-10-28T06:45:59;13.52;;;5.60;;
11829;SDS011;5972;42.134;24.718;2022-10-28T06:48:26;10.48;;;5.70;;
11829;SDS011;5972;42.134;24.718;2022-10-28T06:50:55;12.40;;;5.53;;
11829;SDS011;5972;42.134;24.718;2022-10-28T06:53:22;20.65;;;6.35;;
11829;SDS011;5972;42.134;24.718;2022-10-28T06:55:53;9.65;;;5.45;;
11829;SDS011;5972;42.134;24.718;2022-10-28T06:58:21;12.57;;;5.28;;
11829;SDS011;5972;42.134;24.718;2022-10-28T07:00:48;10.50;;;5.18;;
11829;SDS011;5972;42.134;24.718;2022-10-28T07:03:15;9.57;;;4.80;;
11829;SDS011;5972;42.134;24.718;2022-10-28T07:05:42;12.93;;;5.40;;
11829;SDS011;5972;42.134;24.718;2022-10-28T07:08:11;6.55;;;5.25;;
11829;SDS011;5972;42.134;24.718;2022-10-28T07:10:39;6.75;;;4.55;;
11829;SDS011;5972;42.134;24.718;2022-10-28T07:13:06;10.80;;;4.85;;
11829;SDS011;5972;42.134;24.718;2022-10-28T07:15:33;8.43;;;4.40;;
11829;SDS011;5972;42.134;24.718;2022-10-28T07:18:00;9.10;;;4.38;;
11829;SDS011;5972;42.134;24.718;2022-10-28T07:20:27;7.40;;;4.68;;
11829;SDS011;5972;42.134;24.718;2022-10-28T07:22:56;8.88;;;4.38;;
11829;SDS011;5972;42.134;24.718;2022-10-28T07:25:25;10.25;;;4.60;;
11829;SDS011;5972;42.134;24.718;2022-10-28T07:27:52;10.05;;;4.50;;
11829;SDS011;5972;42.134;24.718;2022-10-28T07:30:19;5.78;;;4.20;;
11829;SDS011;5972;42.134;24.718;2022-10-28T07:32:46;11.18;;;3.97;;
11829;SDS011;5972;42.134;24.718;2022-10-28T07:35:13;11.07;;;4.18;;
11829;SDS011;5972;42.134;24.718;2022-10-28T07:37:40;7.40;;;4.10;;
11829;SDS011;5972;42.134;24.718;2022-10-28T07:40:07;11.77;;;4.20;;
11829;SDS011;5972;42.134;24.718;2022-10-28T07:42:36;12.40;;;4.05;;
11829;SDS011;5972;42.134;24.718;2022-10-28T07:45:03;7.80;;;4.40;;
11829;SDS011;5972;42.134;24.718;2022-10-28T07:47:31;8.45;;;4.07;;
11829;SDS011;5972;42.134;24.718;2022-10-28T07:49:58;7.57;;;3.92;;
11829;SDS011;5972;42.134;24.718;2022-10-28T07:52:25;12.57;;;4.65;;
11829;SDS011;5972;42.134;24.718;2022-10-28T07:54:51;10.82;;;4.00;;
11829;SDS011;5972;42.134;24.718;2022-10-28T07:57:18;15.10;;;4.07;;
11829;SDS011;5972;42.134;24.718;2022-10-28T07:59:47;9.02;;;3.90;;
11829;SDS011;5972;42.134;24.718;2022-10-28T08:02:14;11.95;;;4.47;;
11829;SDS011;5972;42.134;24.718;2022-10-28T08:04:43;15.35;;;4.03;;
11829;SDS011;5972;42.134;24.718;2022-10-28T08:07:10;12.00;;;3.90;;
11829;SDS011;5972;42.134;24.718;2022-10-28T08:09:37;12.20;;;4.07;;
11829;SDS011;5972;42.134;24.718;2022-10-28T08:12:04;7.78;;;3.58;;
11829;SDS011;5972;42.134;24.718;2022-10-28T08:14:32;8.82;;;3.83;;
11829;SDS011;5972;42.134;24.718;2022-10-28T08:17:01;14.52;;;4.40;;
11829;SDS011;5972;42.134;24.718;2022-10-28T08:19:27;11.25;;;3.97;;
11829;SDS011;5972;42.134;24.718;2022-10-28T08:21:54;10.45;;;4.15;;
11829;SDS011;5972;42.134;24.718;2022-10-28T08:24:21;5.75;;;3.40;;
11829;SDS011;5972;42.134;24.718;2022-10-28T08:26:48;6.68;;;3.72;;
11829;SDS011;5972;42.134;24.718;2022-10-28T08:29:15;7.18;;;3.50;;
11829;SDS011;5972;42.134;24.718;2022-10-28T08:31:42;5.05;;;3.20;;
11829;SDS011;5972;42.134;24.718;2022-10-28T08:34:10;6.68;;;4.50;;
11829;SDS011;5972;42.134;24.718;2022-10-28T08:36:37;5.22;;;3.72;;
11829;SDS011;5972;42.134;24.718;2022-10-28T08:39:04;7.93;;;3.60;;
11829;SDS011;5972;42.134;24.718;2022-10-28T08:41:33;8.90;;;3.78;;
11829;SDS011;5972;42.134;24.718;2022-10-28T08:44:07;5.05;;;3.72;;
11829;SDS011;5972;42.134;24.718;2022-10-28T08:46:49;8.60;;;3.85;;
11829;SDS011;5972;42.134;24.718;2022-10-28T08:49:26;14.50;;;3.95;;
11829;SDS011;5972;42.134;24.718;2022-10-28T08:51:57;8.88;;;3.42;;
11829;SDS011;5972;42.134;24.718;2022-10-28T08:54:29;4.63;;;3.65;;
11829;SDS011;5972;42.134;24.718;2022-10-28T08:57:01;13.10;;;4.10;;
11829;SDS011;5972;42.134;24.718;2022-10-28T08:59:34;6.82;;;4.03;;
11829;SDS011;5972;42.134;24.718;2022-10-28T09:02:03;10.00;;;4.13;;
11829;SDS011;5972;42.134;24.718;2022-10-28T09:04:44;12.45;;;3.78;;
11829;SDS011;5972;42.134;24.718;2022-10-28T09:07:13;4.97;;;4.20;;
11829;SDS011;5972;42.134;24.718;2022-10-28T09:09:42;8.93;;;3.80;;
11829;SDS011;5972;42.134;24.718;2022-10-28T09:12:12;11.40;;;3.95;;
11829;SDS011;5972;42.134;24.718;2022-10-28T09:14:58;8.00;;;3.60;;
11829;SDS011;5972;42.134;24.718;2022-10-28T09:17:34;3.85;;;3.50;;
11829;SDS011;5972;42.134;24.718;2022-10-28T09:20:13;7.57;;;3.53;;
11829;SDS011;5972;42.134;24.718;2022-10-28T09:22:45;6.20;;;3.40;;
11829;SDS011;5972;42.134;24.718;2022-10-28T09:25:21;6.70;;;3.38;;
11829;SDS011;5972;42.134;24.718;2022-10-28T09:27:59;4.35;;;3.95;;
11829;SDS011;5972;42.134;24.718;2022-10-28T09:30:48;8.07;;;3.40;;
11829;SDS011;5972;42.134;24.718;2022-10-28T09:33:37;6.40;;;4.20;;
11829;SDS011;5972;42.134;24.718;2022-10-28T09:36:13;8.05;;;3.70;;
11829;SDS011;5972;42.134;24.718;2022-10-28T09:38:44;9.02;;;3.80;;
11829;SDS011;5972;42.134;24.718;2022-10-28T09:41:12;5.35;;;3.80;;
11829;SDS011;5972;42.134;24.718;2022-10-28T09:43:44;8.50;;;3.97;;
11829;SDS011;5972;42.134;24.718;2022-10-28T09:46:14;8.82;;;3.67;;
11829;SDS011;5972;42.134;24.718;2022-10-28T09:48:44;7.47;;;3.60;;
11829;SDS011;5972;42.134;24.718;2022-10-28T09:51:17;4.45;;;3.58;;
11829;SDS011;5972;42.134;24.718;2022-10-28T09:53:52;6.57;;;3.65;;
11829;SDS011;5972;42.134;24.718;2022-10-28T09:56:22;4.25;;;3.50;;
11829;SDS011;5972;42.134;24.718;2022-10-28T09:58:49;6.03;;;3.88;;
11829;SDS011;5972;42.134;24.718;2022-10-28T10:01:19;10.18;;;3.72;;
11829;SDS011;5972;42.134;24.718;2022-10-28T10:03:46;5.40;;;3.38;;
11829;SDS011;5972;42.134;24.718;2022-10-28T10:06:17;6.88;;;3.67;;
11829;SDS011;5972;42.134;24.718;2022-10-28T10:08:45;10.15;;;3.45;;
11829;SDS011;5972;42.134;24.718;2022-10-28T10:11:13;6.40;;;3.35;;
11829;SDS011;5972;42.134;24.718;2022-10-28T10:13:51;5.53;;;3.17;;
11829;SDS011;5972;42.134;24.718;2022-10-28T10:16:20;10.02;;;3.90;;
11829;SDS011;5972;42.134;24.718;2022-10-28T10:18:52;6.68;;;3.83;;
11829;SDS011;5972;42.134;24.718;2022-10-28T10:21:38;5.45;;;3.42;;
11829;SDS011;5972;42.134;24.718;2022-10-28T10:24:20;12.70;;;3.50;;
11829;SDS011;5972;42.134;24.718;2022-10-28T10:26:48;7.97;;;3.30;;
11829;SDS011;5972;42.134;24.718;2022-10-28T10:29:16;4.80;;;3.00;;
11829;SDS011;5972;42.134;24.718;2022-10-28T10:31:44;6.05;;;3.38;;
11829;SDS011;5972;42.134;24.718;2022-10-28T10:34:17;4.65;;;3.47;;
11829;SDS011;5972;42.134;24.718;2022-10-28T10:36:51;8.02;;;3.28;;
11829;SDS011;5972;42.134;24.718;2022-10-28T10:39:21;7.15;;;3.38;;
11829;SDS011;5972;42.134;24.718;2022-10-28T10:41:51;5.78;;;3.03;;
11829;SDS011;5972;42.134;24.718;2022-10-28T10:44:24;4.50;;;2.97;;
11829;SDS011;5972;42.134;24.718;2022-10-28T10:49:41;9.98;;;3.30;;
11829;SDS011;5972;42.134;24.718;2022-10-28T10:52:14;5.65;;;3.10;;
11829;SDS011;5972;42.134;24.718;2022-10-28T10:54:46;6.55;;;2.55;;
11829;SDS011;5972;42.134;24.718;2022-10-28T10:57:22;6.32;;;2.90;;
11829;SDS011;5972;42.134;24.718;2022-10-28T10:59:51;4.30;;;2.47;;
11829;SDS011;5972;42.134;24.718;2022-10-28T11:02:21;5.68;;;3.10;;
11829;SDS011;5972;42.134;24.718;2022-10-28T11:04:52;5.88;;;2.38;;
11829;SDS011;5972;42.134;24.718;2022-10-28T11:07:22;8.85;;;2.85;;
11829;SDS011;5972;42.134;24.718;2022-10-28T11:09:50;3.17;;;2.70;;
11829;SDS011;5972;42.134;24.718;2022-10-28T11:12:23;4.57;;;2.35;;
11829;SDS011;5972;42.134;24.718;2022-10-28T11:14:53;3.67;;;2.50;;
11829;SDS011;5972;42.134;24.718;2022-10-28T11:17:22;6.93;;;2.88;;
11829;SDS011;5972;42.134;24.718;2022-10-28T11:19:52;4.75;;;2.33;;
11829;SDS011;5972;42.134;24.718;2022-10-28T11:22:25;5.63;;;2.28;;
11829;SDS011;5972;42.134;24.718;2022-10-28T11:25:25;3.03;;;2.40;;
11829;SDS011;5972;42.134;24.718;2022-10-28T11:28:03;3.53;;;2.42;;
11829;SDS011;5972;42.134;24.718;2022-10-28T11:30:48;4.93;;;2.17;;
11829;SDS011;5972;42.134;24.718;2022-10-28T11:33:24;3.30;;;2.00;;
11829;SDS011;5972;42.134;24.718;2022-10-28T11:36:00;2.30;;;2.10;;
11829;SDS011;5972;42.134;24.718;2022-10-28T11:38:39;2.70;;;1.95;;
11829;SDS011;5972;42.134;24.718;2022-10-28T11:41:19;2.15;;;1.92;;
11829;SDS011;5972;42.134;24.718;2022-10-28T11:43:56;7.40;;;1.80;;
11829;SDS011;5972;42.134;24.718;2022-10-28T11:46:28;5.18;;;2.08;;
11829;SDS011;5972;42.134;24.718;2022-10-28T11:52:13;3.22;;;1.80;;
11829;SDS011;5972;42.134;24.718;2022-10-28T11:54:53;3.22;;;1.80;;
11829;SDS011;5972;42.134;24.718;2022-10-28T11:57:36;2.65;;;1.80;;
11829;SDS011;5972;42.134;24.718;2022-10-28T12:00:19;2.25;;;1.80;;
11829;SDS011;5972;42.134;24.718;2022-10-28T12:02:57;4.03;;;1.88;;
11829;SDS011;5972;42.134;24.718;2022-10-28T12:05:34;3.65;;;2.13;;
11829;SDS011;5972;42.134;24.718;2022-10-28T12:08:14;2.33;;;2.10;;
11829;SDS011;5972;42.134;24.718;2022-10-28T12:11:05;2.58;;;2.20;;
11829;SDS011;5972;42.134;24.718;2022-10-28T12:13:43;2.38;;;1.95;;
11829;SDS011;5972;42.134;24.718;2022-10-28T12:16:23;2.58;;;2.22;;
11829;SDS011;5972;42.134;24.718;2022-10-28T12:18:59;2.95;;;2.00;;
11829;SDS011;5972;42.134;24.718;2022-10-28T12:21:30;2.97;;;2.08;;
11829;SDS011;5972;42.134;24.718;2022-10-28T12:23:59;6.15;;;2.35;;
11829;SDS011;5972;42.134;24.718;2022-10-28T12:26:32;3.40;;;2.22;;
11829;SDS011;5972;42.134;24.718;2022-10-28T12:29:04;6.43;;;2.38;;
11829;SDS011;5972;42.134;24.718;2022-10-28T12:31:41;3.63;;;2.20;;
11829;SDS011;5972;42.134;24.718;2022-10-28T12:34:12;5.22;;;2.13;;
11829;SDS011;5972;42.134;24.718;2022-10-28T12:36:43;5.63;;;2.08;;
11829;SDS011;5972;42.134;24.718;2022-10-28T12:39:17;5.15;;;2.30;;
11829;SDS011;5972;42.134;24.718;2022-10-28T12:41:56;3.38;;;2.15;;
11829;SDS011;5972;42.134;24.718;2022-10-28T12:44:28;8.57;;;2.42;;
11829;SDS011;5972;42.134;24.718;2022-10-28T12:47:01;2.88;;;2.00;;
11829;SDS011;5972;42.134;24.718;2022-10-28T12:49:36;2.53;;;2.25;;
11829;SDS011;5972;42.134;24.718;2022-10-28T12:52:14;6.43;;;2.42;;
11829;SDS011;5972;42.134;24.718;2022-10-28T12:54:50;4.65;;;2.42;;
11829;SDS011;5972;42.134;24.718;2022-10-28T12:57:25;2.72;;;2.00;;
11829;SDS011;5972;42.134;24.718;2022-10-28T12:59:56;4.32;;;2.70;;
11829;SDS011;5972;42.134;24.718;2022-10-28T13:02:38;3.95;;;2.55;;
11829;SDS011;5972;42.134;24.718;2022-10-28T13:05:14;4.72;;;2.50;;
11829;SDS011;5972;42.134;24.718;2022-10-28T13:07:51;6.28;;;2.30;;
11829;SDS011;5972;42.134;24.718;2022-10-28T13:10:30;5.57;;;2.58;;
11829;SDS011;5972;42.134;24.718;2022-10-28T13:13:09;3.83;;;2.33;;
11829;SDS011;5972;42.134;24.718;2022-10-28T13:15:50;10.25;;;2.42;;
11829;SDS011;5972;42.134;24.718;2022-10-28T13:18:44;7.80;;;2.70;;
11829;SDS011;5972;42.134;24.718;2022-10-28T13:21:32;7.70;;;2.40;;
11829;SDS011;5972;42.134;24.718;2022-10-28T13:24:16;5.45;;;2.20;;
11829;SDS011;5972;42.134;24.718;2022-10-28T13:26:48;4.55;;;2.20;;
11829;SDS011;5972;42.134;24.718;2022-10-28T13:29:19;13.88;;;2.58;;
11829;SDS011;5972;42.134;24.718;2022-10-28T13:31:50;5.28;;;2.58;;
11829;SDS011;5972;42.134;24.718;2022-10-28T13:34:19;5.30;;;2.80;;
11829;SDS011;5972;42.134;24.718;2022-10-28T13:36:56;12.55;;;2.60;;
11829;SDS011;5972;42.134;24.718;2022-10-28T13:39:40;4.95;;;2.55;;
11829;SDS011;5972;42.134;24.718;2022-10-28T13:48:42;8.25;;;2.30;;
11829;SDS011;5972;42.134;24.718;2022-10-28T13:51:28;9.05;;;2.20;;
11829;SDS011;5972;42.134;24.718;2022-10-28T13:53:59;8.90;;;2.28;;
11829;SDS011;5972;42.134;24.718;2022-10-28T13:59:16;4.00;;;2.28;;
11829;SDS011;5972;42.134;24.718;2022-10-28T14:04:42;8.98;;;2.72;;
11829;SDS011;5972;42.134;24.718;2022-10-28T14:07:21;9.07;;;2.38;;
11829;SDS011;5972;42.134;24.718;2022-10-28T14:09:53;4.90;;;2.17;;
11829;SDS011;5972;42.134;24.718;2022-10-28T14:12:24;4.55;;;2.63;;
11829;SDS011;5972;42.134;24.718;2022-10-28T14:15:04;5.13;;;2.30;;
11829;SDS011;5972;42.134;24.718;2022-10-28T14:17:45;5.85;;;2.40;;
11829;SDS011;5972;42.134;24.718;2022-10-28T14:20:20;14.45;;;2.53;;
11829;SDS011;5972;42.134;24.718;2022-10-28T14:22:49;6.30;;;2.35;;
11829;SDS011;5972;42.134;24.718;2022-10-28T14:31:19;3.60;;;2.40;;
11829;SDS011;5972;42.134;24.718;2022-10-28T14:36:58;7.72;;;2.88;;
11829;SDS011;5972;42.134;24.718;2022-10-28T14:39:42;4.57;;;2.80;;
11829;SDS011;5972;42.134;24.718;2022-10-28T14:42:21;7.78;;;2.83;;
11829;SDS011;5972;42.134;24.718;2022-10-28T14:45:05;9.68;;;3.05;;
11829;SDS011;5972;42.134;24.718;2022-10-28T14:47:51;13.35;;;3.50;;
11829;SDS011;5972;42.134;24.718;2022-10-28T14:50:36;8.30;;;2.95;;
11829;SDS011;5972;42.134;24.718;2022-10-28T14:53:06;8.45;;;2.90;;
11829;SDS011;5972;42.134;24.718;2022-10-28T14:55:43;7.57;;;2.70;;
11829;SDS011;5972;42.134;24.718;2022-10-28T14:58:18;8.30;;;2.72;;
11829;SDS011;5972;42.134;24.718;2022-10-28T15:00:48;8.73;;;2.88;;
11829;SDS011;5972;42.134;24.718;2022-10-28T15:03:25;16.30;;;2.92;;
11829;SDS011;5972;42.134;24.718;2022-10-28T15:05:54;8.80;;;2.42;;
11829;SDS011;5972;42.134;24.718;2022-10-28T15:08:23;10.30;;;3.08;;
11829;SDS011;5972;42.134;24.718;2022-10-28T15:10:51;13.57;;;4.00;;
11829;SDS011;5972;42.134;24.718;2022-10-28T15:13:18;15.45;;;5.47;;
11829;SDS011;5972;42.134;24.718;2022-10-28T15:15:51;13.73;;;4.18;;
11829;SDS011;5972;42.134;24.718;2022-10-28T15:18:21;9.25;;;4.00;;
11829;SDS011;5972;42.134;24.718;2022-10-28T15:20:50;21.92;;;6.63;;
11829;SDS011;5972;42.134;24.718;2022-10-28T15:23:34;15.60;;;5.20;;
11829;SDS011;5972;42.134;24.718;2022-10-28T15:26:04;13.30;;;5.18;;
11829;SDS011;5972;42.134;24.718;2022-10-28T15:28:32;18.50;;;4.88;;
11829;SDS011;5972;42.134;24.718;2022-10-28T15:30:59;12.52;;;4.68;;
11829;SDS011;5972;42.134;24.718;2022-10-28T15:33:27;7.82;;;3.92;;
11829;SDS011;5972;42.134;24.718;2022-10-28T15:36:04;5.93;;;3.38;;
11829;SDS011;5972;42.134;24.718;2022-10-28T15:38:38;11.68;;;3.95;;